Time;durP1;ratioP1;P1;durP2;ratioP2;P2;SDS_P1;SDS_P2;PMS_P1;PMS_P2;Temp;Humidity;BMP_temperature;BMP_pressure;BME280_temperature;BME280_humidity;BME280_pressure;Samples;Min_cycle;Max_cycle;Signal;HPM_P1;HPM_P2
2023/01/12 00:00:34;;;;;;;;;;;3.30;99.90;;;;;;4924799;28;19918;-67
2023/01/12 00:03:00;;;;;;;;;;;3.30;99.90;;;;;;4928473;28;20669;-68
2023/01/12 00:05:25;;;;;;;;;;;3.40;99.90;;;;;;4924194;28;25193;-68
2023/01/12 00:07:51;;;;;;;;;;;3.40;99.90;;;;;;4927762;28;19914;-68
2023/01/12 00:10:16;;;;;;;;;;;3.50;99.90;;;;;;4925486;28;19918;-68
2023/01/12 00:12:42;;;;;;;;;;;3.50;99.90;;;;;;4927009;28;19930;-68
2023/01/12 00:15:08;;;;;;;;;;;3.40;99.90;;;;;;4927386;28;20591;-68
2023/01/12 00:17:33;;;;;;;;;;;3.50;99.90;;;;;;4932267;28;20303;-68
2023/01/12 00:19:59;;;;;;;;;;;3.50;99.90;;;;;;4922942;28;19914;-68
2023/01/12 00:22:24;;;;;;;;;;;3.60;99.90;;;;;;4932839;29;19973;-70
2023/01/12 00:24:51;;;;;;;;;;;3.70;99.90;;;;;;4932973;28;20476;-69
2023/01/12 00:27:20;;;;;;;;;;;3.70;99.90;;;;;;4930643;28;19925;-70
2023/01/12 00:29:46;;;;;;;;;;;3.70;99.90;;;;;;4921116;28;19926;-68
2023/01/12 00:32:13;;;;;;;;;;;3.70;99.90;;;;;;4931483;28;19914;-70
2023/01/12 00:34:38;;;;;;;;;;;3.70;99.90;;;;;;4926810;28;19941;-69
2023/01/12 00:37:04;;;;;;;;;;;3.70;99.90;;;;;;4921222;28;20316;-70
2023/01/12 00:39:30;;;;;;;;;;;3.70;99.90;;;;;;4931256;28;19910;-69
2023/01/12 00:47:24;;;;;;;;;;;3.60;99.90;;;;;;4930515;28;19929;-70
2023/01/12 00:49:49;;;;;;;;;;;3.60;99.90;;;;;;4932795;28;20533;-69
2023/01/12 00:52:16;;;;;;;;;;;3.60;99.90;;;;;;4936583;29;19922;-70
2023/01/12 00:54:42;;;;;;;;;;;3.60;99.90;;;;;;4937408;28;19953;-71
2023/01/12 00:57:08;;;;;;;;;;;3.60;99.90;;;;;;4935611;28;20018;-70
2023/01/12 00:59:34;;;;;;;;;;;3.60;99.90;;;;;;4934395;28;21042;-70
2023/01/12 01:02:00;;;;;;;;;;;3.70;99.90;;;;;;4936016;28;19915;-70
2023/01/12 01:04:25;;;;;;;;;;;3.70;99.90;;;;;;4925271;28;19927;-71
2023/01/12 01:06:51;;;;;;;;;;;3.80;99.90;;;;;;4934044;28;19915;-69
2023/01/12 01:09:16;;;;;;;;;;;3.90;99.90;;;;;;4928558;28;19910;-69
2023/01/12 01:11:42;;;;;;;;;;;3.90;99.90;;;;;;4934535;28;19942;-71
2023/01/12 01:14:07;;;;;;;;;;;4.00;99.90;;;;;;4932269;28;19915;-70
2023/01/12 01:16:33;;;;;;;;;;;4.00;99.90;;;;;;4926863;28;20437;-70
2023/01/12 01:18:59;;;;;;;;;;;4.00;99.90;;;;;;4920615;28;19989;-70
2023/01/12 01:21:25;;;;;;;;;;;4.00;99.90;;;;;;4943654;28;19918;-70
2023/01/12 01:23:51;;;;;;;;;;;4.00;99.90;;;;;;4926389;28;19922;-70
2023/01/12 01:26:18;;;;;;;;;;;4.00;99.90;;;;;;4929677;29;19914;-70
2023/01/12 01:28:44;;;;;;;;;;;4.00;99.90;;;;;;4929513;28;19941;-70
2023/01/12 01:31:09;;;;;;;;;;;3.90;99.90;;;;;;4928383;28;19911;-70
2023/01/12 01:33:35;;;;;;;;;;;3.90;99.90;;;;;;4926406;28;20920;-70
2023/01/12 01:36:00;;;;;;;;;;;3.80;99.90;;;;;;4924828;28;19921;-70
2023/01/12 01:38:26;;;;;;;;;;;3.80;99.90;;;;;;4925651;29;19922;-69
2023/01/12 01:40:51;;;;;;;;;;;3.90;99.90;;;;;;4924834;28;19914;-70
2023/01/12 01:43:18;;;;;;;;;;;3.90;99.90;;;;;;4929296;29;20494;-70
2023/01/12 01:45:44;;;;;;;;;;;3.90;99.90;;;;;;4930717;29;21639;-70
2023/01/12 01:48:12;;;;;;;;;;;4.00;99.90;;;;;;4927402;28;20045;-70
2023/01/12 01:50:39;;;;;;;;;;;4.20;99.90;;;;;;4928481;29;19926;-68
2023/01/12 01:53:08;;;;;;;;;;;4.20;99.90;;;;;;4927927;28;19914;-68
2023/01/12 01:55:36;;;;;;;;;;;4.30;99.90;;;;;;4926426;29;19986;-68
2023/01/12 01:58:30;;;;;;;;;;;4.30;99.90;;;;;;4925050;28;19918;-68
2023/01/12 02:00:56;;;;;;;;;;;4.40;99.90;;;;;;4907958;28;20845;-68
2023/01/12 02:03:22;;;;;;;;;;;4.40;99.90;;;;;;4916506;28;19922;-68
2023/01/12 02:05:48;;;;;;;;;;;4.50;99.90;;;;;;4925018;28;19962;-68
2023/01/12 02:08:32;;;;;;;;;;;4.50;99.90;;;;;;4926227;28;20021;-68
2023/01/12 02:10:58;;;;;;;;;;;4.50;99.90;;;;;;4929889;28;19929;-68
2023/01/12 02:16:21;;;;;;;;;;;4.50;99.90;;;;;;4924714;28;19993;-68
2023/01/12 02:18:51;;;;;;;;;;;4.40;99.90;;;;;;4921415;29;19914;-68
2023/01/12 02:21:36;;;;;;;;;;;4.40;99.90;;;;;;4924065;29;19914;-68
2023/01/12 02:24:16;;;;;;;;;;;4.30;99.90;;;;;;4932014;29;19926;-68
2023/01/12 02:26:50;;;;;;;;;;;4.30;99.90;;;;;;4927306;28;20418;-68
2023/01/12 02:29:30;;;;;;;;;;;4.40;99.90;;;;;;4928304;28;19926;-68
2023/01/12 02:31:55;;;;;;;;;;;4.40;99.90;;;;;;4932460;28;19956;-68
2023/01/12 02:34:26;;;;;;;;;;;4.60;99.90;;;;;;4942948;28;20791;-68
2023/01/12 02:37:10;;;;;;;;;;;4.60;99.90;;;;;;4927797;28;20045;-68
2023/01/12 02:39:35;;;;;;;;;;;4.70;99.90;;;;;;4928705;29;19947;-68
2023/01/12 02:44:45;;;;;;;;;;;4.60;99.90;;;;;;4931970;28;19929;-68
2023/01/12 02:47:15;;;;;;;;;;;4.60;99.90;;;;;;4933233;29;19911;-70
2023/01/12 02:49:43;;;;;;;;;;;4.50;99.90;;;;;;4932038;29;20046;-69
2023/01/12 02:52:11;;;;;;;;;;;4.60;99.90;;;;;;4929588;28;19926;-70
2023/01/12 02:54:37;;;;;;;;;;;4.60;99.90;;;;;;4934440;28;19914;-70
2023/01/12 02:57:05;;;;;;;;;;;4.60;99.90;;;;;;4935634;28;20010;-69
2023/01/12 02:59:39;;;;;;;;;;;4.60;99.90;;;;;;4933910;29;19970;-70
2023/01/12 03:02:10;;;;;;;;;;;4.60;99.90;;;;;;4933385;28;20090;-70
2023/01/12 03:04:35;;;;;;;;;;;4.60;99.90;;;;;;4932120;28;19922;-70
2023/01/12 03:07:01;;;;;;;;;;;4.60;99.90;;;;;;4948151;28;20335;-70
2023/01/12 03:09:38;;;;;;;;;;;4.60;99.90;;;;;;4931367;28;20504;-70
2023/01/12 03:12:10;;;;;;;;;;;4.50;99.90;;;;;;4936861;28;20342;-70
2023/01/12 03:14:37;;;;;;;;;;;4.60;99.90;;;;;;4936409;28;19925;-70
2023/01/12 03:17:19;;;;;;;;;;;4.50;99.90;;;;;;4933327;29;19986;-70
2023/01/12 03:19:45;;;;;;;;;;;4.50;99.90;;;;;;4934184;28;19993;-70
2023/01/12 03:22:12;;;;;;;;;;;4.50;99.90;;;;;;4934583;28;19936;-70
2023/01/12 03:24:43;;;;;;;;;;;4.50;99.90;;;;;;4935512;28;19926;-70
2023/01/12 03:27:12;;;;;;;;;;;4.50;99.90;;;;;;4936707;28;19914;-70
2023/01/12 03:29:49;;;;;;;;;;;4.40;99.90;;;;;;4934691;29;19914;-70
2023/01/12 03:32:14;;;;;;;;;;;4.40;99.90;;;;;;4935519;28;20029;-70
2023/01/12 03:34:40;;;;;;;;;;;4.40;99.90;;;;;;4936508;28;20673;-70
2023/01/12 03:37:27;;;;;;;;;;;4.50;99.90;;;;;;4932239;28;19918;-69
2023/01/12 03:40:04;;;;;;;;;;;4.50;99.90;;;;;;4931625;29;20420;-70
2023/01/12 03:42:36;;;;;;;;;;;4.50;99.90;;;;;;4933922;28;19922;-70
2023/01/12 03:45:10;;;;;;;;;;;4.60;99.90;;;;;;4931555;29;19925;-70
2023/01/12 03:47:35;;;;;;;;;;;4.50;99.90;;;;;;4930705;29;19918;-70
2023/01/12 03:50:06;;;;;;;;;;;4.60;99.90;;;;;;4932001;28;20118;-70
2023/01/12 03:52:34;;;;;;;;;;;4.60;99.90;;;;;;4927366;28;19958;-70
2023/01/12 03:55:00;;;;;;;;;;;4.60;99.90;;;;;;4928518;28;19997;-69
2023/01/12 03:57:27;;;;;;;;;;;4.70;99.90;;;;;;4931529;28;20014;-70
2023/01/12 03:59:53;;;;;;;;;;;4.80;99.90;;;;;;4943793;28;19918;-70
2023/01/12 04:02:19;;;;;;;;;;;5.00;99.90;;;;;;4936381;28;19921;-70
2023/01/12 04:04:44;;;;;;;;;;;5.10;99.90;;;;;;4927361;28;19926;-70
2023/01/12 04:07:10;;;;;;;;;;;5.20;99.90;;;;;;4925738;28;20148;-70
2023/01/12 04:09:36;;;;;;;;;;;5.10;99.90;;;;;;4930219;29;19949;-70
2023/01/12 04:12:11;;;;;;;;;;;5.10;99.90;;;;;;4934424;28;20962;-70
2023/01/12 04:14:39;;;;;;;;;;;5.10;99.90;;;;;;4932097;28;19957;-70
2023/01/12 04:17:05;;;;;;;;;;;5.10;99.90;;;;;;4934099;28;19976;-70
2023/01/12 04:19:31;;;;;;;;;;;5.20;99.90;;;;;;4929924;28;20005;-70
2023/01/12 04:24:40;;;;;;;;;;;5.30;99.90;;;;;;4927118;29;20448;-69
2023/01/12 04:27:06;;;;;;;;;;;5.30;99.90;;;;;;4931752;28;20823;-70
2023/01/12 04:29:32;;;;;;;;;;;5.30;99.90;;;;;;4931602;29;19948;-70
2023/01/12 04:31:57;;;;;;;;;;;5.40;99.90;;;;;;4933094;28;19941;-69
2023/01/12 04:34:23;;;;;;;;;;;5.40;99.90;;;;;;4933382;28;19910;-70
2023/01/12 04:36:48;;;;;;;;;;;5.30;99.90;;;;;;4929158;29;19953;-70
2023/01/12 04:39:14;;;;;;;;;;;5.30;99.90;;;;;;4930590;28;19914;-70
2023/01/12 04:41:40;;;;;;;;;;;5.30;99.90;;;;;;4928662;28;19962;-70
2023/01/12 04:44:05;;;;;;;;;;;5.20;99.90;;;;;;4934001;28;20879;-69
2023/01/12 04:46:31;;;;;;;;;;;5.30;99.90;;;;;;4931283;28;19920;-70
2023/01/12 04:48:57;;;;;;;;;;;5.30;99.90;;;;;;4932413;29;19921;-70
2023/01/12 04:51:23;;;;;;;;;;;5.40;99.90;;;;;;4930374;28;20618;-70
2023/01/12 04:53:50;;;;;;;;;;;5.40;99.90;;;;;;4930076;28;20391;-69
2023/01/12 04:56:15;;;;;;;;;;;5.50;99.90;;;;;;4927483;28;20637;-70
2023/01/12 04:58:41;;;;;;;;;;;5.40;99.90;;;;;;4930171;28;19922;-70
2023/01/12 05:01:08;;;;;;;;;;;5.40;99.90;;;;;;4932008;28;20291;-69
2023/01/12 05:03:33;;;;;;;;;;;5.30;99.90;;;;;;4929754;28;19950;-68
2023/01/12 05:06:00;;;;;;;;;;;5.30;99.90;;;;;;4927617;28;20047;-69
2023/01/12 05:11:09;;;;;;;;;;;5.40;99.90;;;;;;4931901;29;19933;-68
2023/01/12 05:13:35;;;;;;;;;;;5.50;99.90;;;;;;4931083;29;20688;-68
2023/01/12 05:16:07;;;;;;;;;;;5.40;99.90;;;;;;4927917;28;19911;-69
2023/01/12 05:18:33;;;;;;;;;;;5.50;99.90;;;;;;4931462;28;20387;-69
2023/01/12 05:20:58;;;;;;;;;;;5.40;99.90;;;;;;4931344;28;19938;-70
2023/01/12 05:23:24;;;;;;;;;;;5.30;99.90;;;;;;4924946;28;19930;-70
2023/01/12 05:25:50;;;;;;;;;;;5.20;99.90;;;;;;4926853;28;19911;-70
2023/01/12 05:28:15;;;;;;;;;;;5.20;99.90;;;;;;4931040;28;19922;-70
2023/01/12 05:30:41;;;;;;;;;;;5.10;99.90;;;;;;4920680;28;20009;-69
2023/01/12 05:33:10;;;;;;;;;;;5.10;99.90;;;;;;4929811;28;20394;-70
2023/01/12 05:35:36;;;;;;;;;;;5.00;99.90;;;;;;4930651;28;19946;-70
2023/01/12 05:38:02;;;;;;;;;;;5.00;99.90;;;;;;4932657;29;19914;-69
2023/01/12 05:40:27;;;;;;;;;;;5.00;99.90;;;;;;4931563;29;19969;-70
2023/01/12 05:45:38;;;;;;;;;;;4.90;99.90;;;;;;4926780;28;19932;-69
2023/01/12 05:48:04;;;;;;;;;;;4.90;99.90;;;;;;4932587;28;19914;-69
2023/01/12 05:50:30;;;;;;;;;;;5.00;99.90;;;;;;4939244;28;19922;-69
2023/01/12 05:52:55;;;;;;;;;;;5.00;99.90;;;;;;4940718;29;19917;-69
2023/01/12 05:55:21;;;;;;;;;;;5.10;99.90;;;;;;4938640;28;20449;-69
2023/01/12 05:57:46;;;;;;;;;;;5.10;99.90;;;;;;4927109;28;20733;-69
2023/01/12 06:00:12;;;;;;;;;;;5.10;99.90;;;;;;4933565;28;20501;-69
2023/01/12 06:02:38;;;;;;;;;;;5.10;99.90;;;;;;4933932;28;19911;-69
2023/01/12 06:05:07;;;;;;;;;;;5.10;99.90;;;;;;4927083;28;20635;-69
2023/01/12 06:07:32;;;;;;;;;;;5.10;99.90;;;;;;4933330;29;20496;-69
2023/01/12 06:09:58;;;;;;;;;;;5.10;99.90;;;;;;4926995;28;20017;-69
2023/01/12 06:15:08;;;;;;;;;;;5.30;99.90;;;;;;4925525;29;19922;-70
2023/01/12 06:17:33;;;;;;;;;;;5.30;99.90;;;;;;4930050;28;19914;-70
2023/01/12 06:19:59;;;;;;;;;;;5.30;99.90;;;;;;4925149;29;20020;-70
2023/01/12 06:22:26;;;;;;;;;;;5.30;99.90;;;;;;4927346;28;19918;-69
2023/01/12 06:24:52;;;;;;;;;;;5.20;99.90;;;;;;4942796;28;20146;-69
2023/01/12 06:27:18;;;;;;;;;;;5.20;99.90;;;;;;4931110;28;19965;-70
2023/01/12 06:29:43;;;;;;;;;;;5.30;99.90;;;;;;4927571;29;20678;-69
2023/01/12 06:32:09;;;;;;;;;;;5.30;99.90;;;;;;4925767;29;20105;-70
2023/01/12 06:34:34;;;;;;;;;;;5.40;99.90;;;;;;4928333;28;20604;-70
2023/01/12 06:37:01;;;;;;;;;;;5.40;99.90;;;;;;4922972;28;19924;-68
2023/01/12 06:39:27;;;;;;;;;;;5.50;99.90;;;;;;4926338;28;20082;-67
2023/01/12 06:44:37;;;;;;;;;;;5.60;99.90;;;;;;4925459;28;19933;-70
2023/01/12 06:47:03;;;;;;;;;;;5.60;99.90;;;;;;4931401;28;20608;-69
2023/01/12 06:49:28;;;;;;;;;;;5.70;99.90;;;;;;4928162;28;20002;-68
2023/01/12 06:51:54;;;;;;;;;;;5.70;99.90;;;;;;4923406;28;20315;-69
2023/01/12 06:54:19;;;;;;;;;;;5.80;99.90;;;;;;4932309;29;20001;-70
2023/01/12 06:56:45;;;;;;;;;;;5.80;99.90;;;;;;4932859;28;19950;-69
2023/01/12 06:59:11;;;;;;;;;;;5.70;99.90;;;;;;4935310;28;19914;-70
2023/01/12 07:01:37;;;;;;;;;;;5.60;99.90;;;;;;4931985;28;19965;-69
2023/01/12 07:04:03;;;;;;;;;;;5.40;99.90;;;;;;4931646;28;19926;-69
2023/01/12 07:06:28;;;;;;;;;;;5.40;99.90;;;;;;4926612;28;19921;-71
2023/01/12 07:08:54;;;;;;;;;;;5.40;99.90;;;;;;4925278;28;20013;-73
2023/01/12 07:11:20;;;;;;;;;;;5.40;99.90;;;;;;4936681;28;19930;-73
2023/01/12 07:13:45;;;;;;;;;;;5.40;99.90;;;;;;4943486;29;19922;-73
2023/01/12 07:16:11;;;;;;;;;;;5.40;99.90;;;;;;4936490;29;19923;-73
2023/01/12 07:18:37;;;;;;;;;;;5.40;99.90;;;;;;4936405;28;19925;-73
2023/01/12 07:21:04;;;;;;;;;;;5.40;99.90;;;;;;4942139;29;20276;-73
2023/01/12 07:23:29;;;;;;;;;;;5.40;99.90;;;;;;4940068;28;20032;-73
2023/01/12 07:25:56;;;;;;;;;;;5.40;99.90;;;;;;4937603;29;20418;-73
2023/01/12 07:28:21;;;;;;;;;;;5.40;99.90;;;;;;4943861;28;19911;-73
2023/01/12 07:30:47;;;;;;;;;;;5.40;99.90;;;;;;4941456;29;19949;-73
2023/01/12 07:33:13;;;;;;;;;;;5.50;99.90;;;;;;4943217;28;19968;-68
2023/01/12 07:35:39;;;;;;;;;;;5.40;99.90;;;;;;4946636;28;19914;-73
2023/01/12 07:38:05;;;;;;;;;;;5.40;99.90;;;;;;4945264;28;19910;-73
2023/01/12 07:40:30;;;;;;;;;;;5.50;99.90;;;;;;4943714;28;19914;-73
2023/01/12 07:43:00;;;;;;;;;;;5.50;99.90;;;;;;4944477;29;19925;-73
2023/01/12 07:45:26;;;;;;;;;;;5.50;99.90;;;;;;4959548;28;20390;-74
2023/01/12 07:47:52;;;;;;;;;;;5.50;99.90;;;;;;4945970;28;19910;-73
2023/01/12 07:50:18;;;;;;;;;;;5.40;99.90;;;;;;4943147;28;19922;-73
2023/01/12 07:52:43;;;;;;;;;;;5.40;99.90;;;;;;4946149;29;19915;-73
2023/01/12 07:55:09;;;;;;;;;;;5.50;99.90;;;;;;4943529;28;20005;-73
2023/01/12 07:57:36;;;;;;;;;;;5.60;99.90;;;;;;4947463;28;19911;-73
2023/01/12 08:00:03;;;;;;;;;;;5.60;99.90;;;;;;4942398;28;19916;-72
2023/01/12 08:02:28;;;;;;;;;;;5.70;99.90;;;;;;4941353;28;19917;-72
2023/01/12 08:04:54;;;;;;;;;;;5.70;99.90;;;;;;4943018;28;19922;-72
2023/01/12 08:07:19;;;;;;;;;;;5.70;99.90;;;;;;4944066;29;19953;-72
2023/01/12 08:09:45;;;;;;;;;;;5.70;99.90;;;;;;4942556;28;20017;-72
2023/01/12 08:12:10;;;;;;;;;;;5.80;99.90;;;;;;4946405;29;19914;-72
2023/01/12 08:14:37;;;;;;;;;;;5.90;99.90;;;;;;4939615;29;19910;-68
2023/01/12 08:17:04;;;;;;;;;;;6.00;99.90;;;;;;4946377;29;19914;-68
2023/01/12 08:19:39;;;;;;;;;;;6.10;99.90;;;;;;4940956;29;20759;-69
2023/01/12 08:22:08;;;;;;;;;;;6.20;99.90;;;;;;4945180;28;19938;-68
2023/01/12 08:24:38;;;;;;;;;;;6.30;99.90;;;;;;4942438;29;20368;-68
2023/01/12 08:27:05;;;;;;;;;;;6.40;99.90;;;;;;4944510;28;19910;-68
2023/01/12 08:29:45;;;;;;;;;;;6.40;99.90;;;;;;4943288;28;20750;-68
2023/01/12 08:32:12;;;;;;;;;;;6.30;99.90;;;;;;4940536;28;19997;-73
2023/01/12 08:34:39;;;;;;;;;;;6.30;99.90;;;;;;4944875;28;19910;-73
2023/01/12 08:37:07;;;;;;;;;;;6.30;99.90;;;;;;4936861;28;19925;-73
2023/01/12 08:39:34;;;;;;;;;;;6.40;99.90;;;;;;4962791;28;19918;-72
2023/01/12 08:42:00;;;;;;;;;;;6.40;99.90;;;;;;4937089;29;19918;-72
2023/01/12 08:44:31;;;;;;;;;;;6.40;99.90;;;;;;4946207;28;19945;-73
2023/01/12 08:46:57;;;;;;;;;;;6.50;99.90;;;;;;4942252;28;20356;-73
2023/01/12 08:49:24;;;;;;;;;;;6.50;99.90;;;;;;4939710;29;19921;-73
2023/01/12 08:51:50;;;;;;;;;;;6.50;99.90;;;;;;4945711;28;19930;-68
2023/01/12 08:54:16;;;;;;;;;;;6.50;99.90;;;;;;4936147;28;19973;-68
2023/01/12 08:56:41;;;;;;;;;;;6.60;99.90;;;;;;4942564;29;19921;-68
2023/01/12 08:59:07;;;;;;;;;;;6.60;99.90;;;;;;4943085;28;19914;-68
2023/01/12 09:01:33;;;;;;;;;;;6.60;99.90;;;;;;4933140;28;20295;-68
2023/01/12 09:03:59;;;;;;;;;;;6.60;99.90;;;;;;4944615;28;19919;-68
2023/01/12 09:06:28;;;;;;;;;;;6.60;99.90;;;;;;4943908;28;21011;-67
2023/01/12 09:08:55;;;;;;;;;;;6.70;99.90;;;;;;4942529;28;19910;-68
2023/01/12 09:11:20;;;;;;;;;;;6.70;99.90;;;;;;4935670;28;19918;-68
2023/01/12 09:13:46;;;;;;;;;;;6.80;99.90;;;;;;4938357;28;19910;-68
2023/01/12 09:16:12;;;;;;;;;;;6.90;99.90;;;;;;4938430;28;19910;-68
2023/01/12 09:18:38;;;;;;;;;;;7.00;99.90;;;;;;4944559;29;19910;-68
2023/01/12 09:21:14;;;;;;;;;;;6.80;99.90;;;;;;4937596;28;19969;-68
2023/01/12 09:23:40;;;;;;;;;;;6.80;99.90;;;;;;4939092;29;19964;-68
2023/01/12 09:26:07;;;;;;;;;;;6.90;99.90;;;;;;4954435;28;20351;-68
2023/01/12 09:28:33;;;;;;;;;;;7.00;99.90;;;;;;4938689;28;20406;-72
2023/01/12 09:31:00;;;;;;;;;;;7.20;99.90;;;;;;4943748;29;21017;-73
2023/01/12 09:33:26;;;;;;;;;;;7.20;99.90;;;;;;4947046;28;19921;-72
2023/01/12 09:35:51;;;;;;;;;;;7.30;99.90;;;;;;4936262;29;19977;-73
2023/01/12 09:38:17;;;;;;;;;;;7.40;99.90;;;;;;4936429;28;20367;-73
2023/01/12 09:40:43;;;;;;;;;;;7.40;99.90;;;;;;4938518;28;20662;-73
2023/01/12 09:48:41;;;;;;;;;;;7.30;99.90;;;;;;4945452;28;19949;-68
2023/01/12 09:51:10;;;;;;;;;;;7.40;99.90;;;;;;4940524;29;20402;-68
2023/01/12 09:53:38;;;;;;;;;;;7.50;99.90;;;;;;4940019;28;19918;-68
2023/01/12 09:56:10;;;;;;;;;;;7.60;99.90;;;;;;4935290;28;19925;-68
2023/01/12 09:58:41;;;;;;;;;;;7.70;99.90;;;;;;4943702;28;20013;-68
2023/01/12 10:01:15;;;;;;;;;;;7.80;99.90;;;;;;4943357;28;19915;-69
2023/01/12 10:03:41;;;;;;;;;;;7.80;99.90;;;;;;4934744;28;20446;-67
2023/01/12 10:06:13;;;;;;;;;;;7.90;99.90;;;;;;4940903;28;20059;-73
2023/01/12 10:08:45;;;;;;;;;;;8.00;99.90;;;;;;4941353;28;19910;-73
2023/01/12 10:11:15;;;;;;;;;;;8.00;99.90;;;;;;4940793;28;19914;-72
2023/01/12 10:13:59;;;;;;;;;;;8.00;99.90;;;;;;4940480;29;19960;-75
2023/01/12 10:16:43;;;;;;;;;;;8.10;99.90;;;;;;4938246;28;20279;-73
2023/01/12 10:19:20;;;;;;;;;;;8.20;99.90;;;;;;4942684;29;20305;-73
2023/01/12 10:21:46;;;;;;;;;;;8.10;99.90;;;;;;4937606;28;19954;-73
2023/01/12 10:24:12;;;;;;;;;;;8.10;99.90;;;;;;4937986;28;20021;-72
2023/01/12 10:26:40;;;;;;;;;;;8.30;99.90;;;;;;4940429;28;20009;-71
2023/01/12 10:29:08;;;;;;;;;;;8.40;99.90;;;;;;4938489;28;19914;-72
2023/01/12 10:31:33;;;;;;;;;;;8.40;99.90;;;;;;4934237;28;19915;-72
2023/01/12 10:34:06;;;;;;;;;;;8.50;99.90;;;;;;4938070;28;19918;-73
2023/01/12 10:36:36;;;;;;;;;;;8.50;99.90;;;;;;4925215;28;19918;-72
2023/01/12 10:39:03;;;;;;;;;;;8.60;99.90;;;;;;4926857;28;25332;-72
2023/01/12 10:41:32;;;;;;;;;;;8.70;99.90;;;;;;4937646;28;19946;-72
2023/01/12 10:43:58;;;;;;;;;;;8.70;99.90;;;;;;4943377;28;19925;-73
2023/01/12 10:46:30;;;;;;;;;;;8.70;99.90;;;;;;4930926;28;19914;-71
2023/01/12 10:49:14;;;;;;;;;;;8.60;99.90;;;;;;4942085;29;19914;-72
2023/01/12 10:52:09;;;;;;;;;;;8.60;99.90;;;;;;4940880;29;19972;-73
2023/01/12 10:54:36;;;;;;;;;;;8.60;99.90;;;;;;4924219;29;19914;-73
2023/01/12 10:57:06;;;;;;;;;;;8.50;99.90;;;;;;4941904;28;19989;-73
2023/01/12 10:59:33;;;;;;;;;;;8.50;99.90;;;;;;4933888;28;19937;-74
2023/01/12 11:01:58;;;;;;;;;;;8.60;99.90;;;;;;4925004;28;19910;-69
2023/01/12 11:04:26;;;;;;;;;;;8.60;99.90;;;;;;4942908;28;20292;-68
2023/01/12 11:06:56;;;;;;;;;;;8.60;99.90;;;;;;4932786;28;19985;-68
2023/01/12 11:09:23;;;;;;;;;;;8.70;99.90;;;;;;4943531;28;19921;-68
2023/01/12 11:11:52;;;;;;;;;;;8.70;99.90;;;;;;4946978;28;19914;-69
2023/01/12 11:14:28;;;;;;;;;;;8.70;99.90;;;;;;4940451;29;19911;-69
2023/01/12 11:16:58;;;;;;;;;;;8.70;99.90;;;;;;4942211;28;19911;-69
2023/01/12 11:19:31;;;;;;;;;;;8.60;99.90;;;;;;4936378;28;19914;-69
2023/01/12 11:22:03;;;;;;;;;;;8.60;99.90;;;;;;4942530;28;19915;-69
2023/01/12 11:24:44;;;;;;;;;;;8.60;99.90;;;;;;4940386;28;19937;-73
2023/01/12 11:27:12;;;;;;;;;;;8.70;99.90;;;;;;4938991;28;20068;-74
2023/01/12 11:29:42;;;;;;;;;;;8.70;99.90;;;;;;4942974;28;19918;-74
2023/01/12 11:32:13;;;;;;;;;;;8.70;99.90;;;;;;4960144;28;21814;-74
2023/01/12 11:34:50;;;;;;;;;;;8.90;99.90;;;;;;4937436;28;20421;-73
2023/01/12 11:37:17;;;;;;;;;;;9.00;99.90;;;;;;4936998;28;20302;-74
2023/01/12 11:39:44;;;;;;;;;;;9.00;99.90;;;;;;4943483;28;19910;-74
2023/01/12 11:45:12;;;;;;;;;;;9.00;99.90;;;;;;4939838;28;19958;-67
2023/01/12 11:47:57;;;;;;;;;;;9.00;99.90;;;;;;4943893;28;20303;-68
2023/01/12 11:50:27;;;;;;;;;;;9.10;99.90;;;;;;4942832;28;19914;-68
2023/01/12 11:52:54;;;;;;;;;;;9.20;99.90;;;;;;4941844;28;19914;-69
2023/01/12 11:55:26;;;;;;;;;;;9.30;99.90;;;;;;4944872;29;19919;-67
2023/01/12 11:58:07;;;;;;;;;;;9.40;99.90;;;;;;4944768;28;19933;-67
2023/01/12 12:00:38;;;;;;;;;;;9.50;99.90;;;;;;4944188;28;19929;-73
2023/01/12 12:03:19;;;;;;;;;;;9.60;99.90;;;;;;4952791;28;20395;-71
2023/01/12 12:05:54;;;;;;;;;;;9.70;99.90;;;;;;4941862;29;20419;-72
2023/01/12 12:08:29;;;;;;;;;;;9.70;99.90;;;;;;4960568;28;19973;-70
2023/01/12 12:11:29;;;;;;;;;;;9.60;99.90;;;;;;4943761;29;19918;-70
2023/01/12 12:13:57;;;;;;;;;;;9.70;99.90;;;;;;4940544;28;19921;-71
2023/01/12 12:16:29;;;;;;;;;;;9.70;99.90;;;;;;4935339;28;20750;-72
2023/01/12 12:19:09;;;;;;;;;;;9.70;99.90;;;;;;4948046;28;19925;-71
2023/01/12 12:21:37;;;;;;;;;;;9.70;99.90;;;;;;4946961;29;19974;-71
2023/01/12 12:24:21;;;;;;;;;;;9.60;99.90;;;;;;4954013;28;19965;-71
2023/01/12 12:26:50;;;;;;;;;;;9.60;99.90;;;;;;4933786;28;19910;-72
2023/01/12 12:29:16;;;;;;;;;;;9.70;99.90;;;;;;4945162;28;20148;-72
2023/01/12 12:31:41;;;;;;;;;;;9.70;99.90;;;;;;4941364;29;20376;-72
2023/01/12 12:34:15;;;;;;;;;;;9.80;99.90;;;;;;4940026;28;19938;-72
2023/01/12 12:36:55;;;;;;;;;;;9.80;99.90;;;;;;4943700;29;19918;-72
2023/01/12 12:39:39;;;;;;;;;;;9.90;99.90;;;;;;4937532;28;20375;-73
2023/01/12 12:45:17;;;;;;;;;;;9.80;99.90;;;;;;4943776;29;19966;-73
2023/01/12 12:47:51;;;;;;;;;;;9.90;99.90;;;;;;4937417;28;20498;-72
2023/01/12 12:50:22;;;;;;;;;;;9.90;99.90;;;;;;4932993;28;19919;-72
2023/01/12 12:52:59;;;;;;;;;;;10.00;99.90;;;;;;4939763;28;19969;-72
2023/01/12 12:55:25;;;;;;;;;;;10.00;99.90;;;;;;4940997;29;19953;-72
2023/01/12 12:57:57;;;;;;;;;;;10.00;99.90;;;;;;4928104;28;19918;-72
2023/01/12 13:00:30;;;;;;;;;;;9.90;99.90;;;;;;4941145;28;19910;-72
2023/01/12 13:02:57;;;;;;;;;;;9.80;99.90;;;;;;4933068;28;20033;-73
2023/01/12 13:05:40;;;;;;;;;;;9.80;99.90;;;;;;4937121;29;19927;-72
2023/01/12 13:08:17;;;;;;;;;;;9.80;99.90;;;;;;4940014;29;19925;-73
2023/01/12 13:10:53;;;;;;;;;;;9.90;99.90;;;;;;4940580;28;19946;-73
2023/01/12 13:13:23;;;;;;;;;;;9.80;99.90;;;;;;4927954;28;19922;-73
2023/01/12 13:15:49;;;;;;;;;;;9.80;99.90;;;;;;4935534;29;19910;-73
2023/01/12 13:18:33;;;;;;;;;;;9.80;99.90;;;;;;4941216;28;20296;-68
2023/01/12 13:20:59;;;;;;;;;;;9.80;99.90;;;;;;4932841;28;20219;-68
2023/01/12 13:23:40;;;;;;;;;;;9.90;99.90;;;;;;4932032;28;19922;-68
2023/01/12 13:26:18;;;;;;;;;;;9.90;99.90;;;;;;4933684;28;19961;-68
2023/01/12 13:28:44;;;;;;;;;;;10.00;99.90;;;;;;4936590;28;19957;-68
2023/01/12 13:31:29;;;;;;;;;;;10.10;99.90;;;;;;4934467;28;20031;-68
2023/01/12 13:34:14;;;;;;;;;;;10.20;99.90;;;;;;4922062;28;20229;-68
2023/01/12 13:36:41;;;;;;;;;;;10.30;99.90;;;;;;4935850;28;19962;-68
2023/01/12 13:39:09;;;;;;;;;;;10.30;99.90;;;;;;4937805;28;19954;-68
2023/01/12 13:44:40;;;;;;;;;;;10.60;99.90;;;;;;4924899;28;19929;-67
2023/01/12 13:47:13;;;;;;;;;;;10.90;99.90;;;;;;4932034;29;19914;-67
2023/01/12 13:49:46;;;;;;;;;;;11.20;99.90;;;;;;4926367;28;19973;-67
2023/01/12 13:52:19;;;;;;;;;;;11.80;99.90;;;;;;4936205;28;19965;-67
2023/01/12 13:54:48;;;;;;;;;;;12.40;99.90;;;;;;4932931;28;19918;-74
2023/01/12 13:57:17;;;;;;;;;;;13.00;99.90;;;;;;4933583;28;19932;-74
2023/01/12 13:59:58;;;;;;;;;;;13.90;99.90;;;;;;4933879;28;19961;-73
2023/01/12 14:02:24;;;;;;;;;;;15.00;99.90;;;;;;4935003;28;19914;-73
2023/01/12 14:04:56;;;;;;;;;;;16.10;99.90;;;;;;4934451;28;20434;-73
2023/01/12 14:07:40;;;;;;;;;;;16.60;99.90;;;;;;4936536;29;19937;-73
2023/01/12 14:10:12;;;;;;;;;;;16.80;99.90;;;;;;4939289;29;20379;-73
2023/01/12 14:12:46;;;;;;;;;;;16.50;99.90;;;;;;4942269;29;19914;-73
2023/01/12 14:18:03;;;;;;;;;;;14.90;99.90;;;;;;4937681;28;20580;-73
2023/01/12 14:20:31;;;;;;;;;;;14.10;99.90;;;;;;4943156;29;19918;-73
2023/01/12 14:23:16;;;;;;;;;;;13.60;99.90;;;;;;4940556;29;19915;-73
2023/01/12 14:25:41;;;;;;;;;;;13.40;99.90;;;;;;4941112;29;20822;-73
2023/01/12 14:28:17;;;;;;;;;;;13.00;99.90;;;;;;4943757;28;19989;-72
2023/01/12 14:30:44;;;;;;;;;;;12.60;99.90;;;;;;4948978;28;20365;-72
2023/01/12 14:33:17;;;;;;;;;;;12.20;99.90;;;;;;4931823;28;20381;-73
2023/01/12 14:35:44;;;;;;;;;;;11.80;99.90;;;;;;4926910;28;19910;-73
2023/01/12 14:38:11;;;;;;;;;;;11.40;99.90;;;;;;4939546;28;19981;-73
2023/01/12 14:40:36;;;;;;;;;;;11.10;99.90;;;;;;4942605;29;19918;-75
2023/01/12 14:48:42;;;;;;;;;;;10.20;99.90;;;;;;4935156;28;19920;-73
2023/01/12 14:51:17;;;;;;;;;;;10.00;99.90;;;;;;4932309;28;20058;-73
2023/01/12 14:53:43;;;;;;;;;;;9.90;99.90;;;;;;4941524;29;19921;-69
2023/01/12 14:56:12;;;;;;;;;;;9.70;99.90;;;;;;4935210;28;19918;-68
2023/01/12 14:58:37;;;;;;;;;;;9.60;99.90;;;;;;4943890;28;19969;-68
2023/01/12 15:01:03;;;;;;;;;;;9.40;99.90;;;;;;4930637;28;20309;-68
2023/01/12 15:03:29;;;;;;;;;;;9.30;99.90;;;;;;4933802;28;19926;-69
2023/01/12 15:05:55;;;;;;;;;;;8.90;99.90;;;;;;4932919;28;20430;-68
2023/01/12 15:08:29;;;;;;;;;;;8.60;99.90;;;;;;4943666;28;19914;-68
2023/01/12 15:11:15;;;;;;;;;;;8.50;99.90;;;;;;4943179;29;19969;-74
2023/01/12 15:13:40;;;;;;;;;;;8.30;99.90;;;;;;4937652;28;20462;-68
2023/01/12 15:27:14;;;;;;;;;;;7.50;99.90;;;;;;4942994;29;20016;-68
2023/01/12 15:29:39;;;;;;;;;;;7.40;99.90;;;;;;4937650;28;20802;-68
2023/01/12 15:32:11;;;;;;;;;;;7.40;99.90;;;;;;4935031;29;20651;-68
2023/01/12 15:34:36;;;;;;;;;;;7.20;99.90;;;;;;4939507;28;20426;-68
2023/01/12 15:37:02;;;;;;;;;;;7.10;99.90;;;;;;4933336;28;19919;-68